Time;durP1;ratioP1;P1;durP2;ratioP2;P2;SDS_P1;SDS_P2;PMS_P1;PMS_P2;Temp;Humidity;BMP_temperature;BMP_pressure;BME280_temperature;BME280_humidity;BME280_pressure;Samples;Min_cycle;Max_cycle;Signal;HPM_P1;HPM_P2
2021/10/25 00:01:45;;;;;;;6.50;5.63;;;6.50;99.30;;;;;;6176963;28;20504;-66
2021/10/25 00:04:50;;;;;;;7.80;4.97;;;6.40;99.50;;;;;;6179343;28;20828;-66
2021/10/25 00:07:55;;;;;;;6.27;5.47;;;6.40;99.60;;;;;;6180614;28;20971;-66
2021/10/25 00:10:58;;;;;;;6.20;5.60;;;6.40;99.70;;;;;;6180693;28;20473;-66
2021/10/25 00:14:01;;;;;;;10.20;5.53;;;6.40;99.60;;;;;;6180216;28;20473;-66
2021/10/25 00:17:04;;;;;;;5.80;5.20;;;6.40;99.70;;;;;;6180758;28;20465;-67
2021/10/25 00:20:11;;;;;;;5.77;5.27;;;6.40;99.70;;;;;;6176756;28;20489;-66
2021/10/25 00:23:15;;;;;;;5.80;4.70;;;6.40;99.60;;;;;;6180692;28;20486;-67
2021/10/25 00:26:18;;;;;;;6.30;5.70;;;6.30;99.70;;;;;;6180234;28;20481;-67
2021/10/25 00:29:22;;;;;;;7.43;5.07;;;6.30;99.80;;;;;;6180153;28;20485;-67
2021/10/25 00:32:25;;;;;;;8.53;5.70;;;6.30;99.80;;;;;;6180368;28;20539;-67
2021/10/25 00:35:30;;;;;;;5.47;4.93;;;6.30;99.70;;;;;;6180367;28;20473;-66
2021/10/25 00:38:33;;;;;;;5.77;5.23;;;6.30;99.80;;;;;;6179763;28;20485;-66
2021/10/25 00:41:36;;;;;;;5.93;5.30;;;6.30;99.80;;;;;;6179865;28;20969;-67
2021/10/25 00:44:40;;;;;;;5.47;4.97;;;6.30;99.80;;;;;;6179901;28;20474;-67
2021/10/25 00:47:43;;;;;;;6.40;5.13;;;6.20;99.80;;;;;;6179679;28;20966;-67
2021/10/25 00:50:48;;;;;;;7.60;5.60;;;6.20;99.80;;;;;;6179603;28;20482;-66
2021/10/25 00:53:52;;;;;;;6.97;5.57;;;6.20;99.80;;;;;;6179533;28;20470;-66
2021/10/25 00:56:55;;;;;;;7.43;6.07;;;6.10;99.70;;;;;;6179508;28;20992;-66
2021/10/25 00:59:59;;;;;;;10.30;5.37;;;6.00;99.80;;;;;;6179300;28;20957;-66
2021/10/25 01:03:02;;;;;;;10.20;6.50;;;6.00;99.90;;;;;;6186253;28;20474;-66
2021/10/25 01:06:07;;;;;;;10.37;5.97;;;6.00;99.90;;;;;;6186718;28;20478;-66
2021/10/25 01:09:11;;;;;;;6.50;5.77;;;5.90;99.90;;;;;;6181897;28;20488;-67
2021/10/25 01:12:14;;;;;;;6.00;5.07;;;6.00;99.90;;;;;;6179585;28;20485;-67
2021/10/25 01:15:17;;;;;;;5.93;5.13;;;5.90;99.90;;;;;;6179365;28;20497;-67
2021/10/25 01:18:21;;;;;;;6.50;5.80;;;5.90;99.90;;;;;;6179326;28;20482;-66
2021/10/25 01:21:26;;;;;;;7.20;5.60;;;5.90;99.90;;;;;;6179398;28;20477;-66
2021/10/25 01:24:29;;;;;;;10.63;6.20;;;5.80;99.90;;;;;;6179300;28;20512;-67
2021/10/25 01:27:32;;;;;;;6.90;5.77;;;5.80;99.90;;;;;;6179157;28;20473;-67
2021/10/25 01:30:36;;;;;;;7.13;6.10;;;5.80;99.90;;;;;;6179054;28;20492;-67
2021/10/25 01:33:39;;;;;;;8.23;6.40;;;5.70;99.90;;;;;;6178806;28;21085;-67
2021/10/25 01:36:44;;;;;;;10.40;7.47;;;5.80;99.90;;;;;;6179208;28;20470;-67
2021/10/25 01:39:47;;;;;;;8.57;7.40;;;5.80;99.90;;;;;;6178315;28;20486;-67
2021/10/25 01:42:50;;;;;;;12.00;7.90;;;5.70;99.90;;;;;;6178468;28;20481;-67
2021/10/25 01:45:53;;;;;;;8.77;7.70;;;5.80;99.90;;;;;;6178279;28;20474;-67
2021/10/25 01:48:56;;;;;;;8.60;7.20;;;5.80;99.90;;;;;;6178887;28;20478;-67
2021/10/25 01:52:01;;;;;;;7.80;7.10;;;5.70;99.90;;;;;;6178230;28;20492;-67
2021/10/25 01:55:05;;;;;;;6.50;5.90;;;5.70;99.90;;;;;;6178556;28;20481;-66
2021/10/25 01:58:08;;;;;;;6.10;5.50;;;5.70;99.90;;;;;;6178324;28;21022;-67
2021/10/25 02:01:17;;;;;;;9.33;6.37;;;5.60;99.90;;;;;;6180035;28;20477;-67
2021/10/25 02:04:20;;;;;;;7.77;5.77;;;5.60;99.90;;;;;;6198643;28;20906;-67
2021/10/25 02:07:25;;;;;;;7.73;5.53;;;5.60;99.90;;;;;;6202258;28;20759;-67
2021/10/25 02:10:28;;;;;;;7.90;5.40;;;5.60;99.90;;;;;;6202070;28;20547;-67
2021/10/25 02:13:31;;;;;;;6.23;5.43;;;5.50;99.90;;;;;;6202649;28;20481;-67
2021/10/25 02:16:34;;;;;;;9.63;6.10;;;5.50;99.90;;;;;;6202080;28;20460;-67
2021/10/25 02:19:38;;;;;;;9.00;6.33;;;5.50;99.90;;;;;;6202018;28;20472;-67
2021/10/25 02:22:43;;;;;;;6.40;5.57;;;5.40;99.90;;;;;;6202224;28;20928;-67
2021/10/25 02:25:48;;;;;;;8.70;5.00;;;5.40;99.90;;;;;;6201992;28;20476;-67
2021/10/25 02:28:52;;;;;;;8.83;6.60;;;5.40;99.90;;;;;;6192975;28;20469;-66
2021/10/25 02:31:55;;;;;;;4.67;4.23;;;5.40;99.90;;;;;;6201791;28;20499;-66
2021/10/25 02:34:59;;;;;;;6.83;5.10;;;5.30;99.90;;;;;;6201753;28;20929;-66
2021/10/25 02:38:08;;;;;;;7.63;5.60;;;5.30;99.90;;;;;;6201864;28;20528;-66
2021/10/25 02:41:12;;;;;;;8.23;5.33;;;5.30;99.90;;;;;;6177569;28;20783;-66
2021/10/25 02:44:15;;;;;;;6.33;5.30;;;5.30;99.90;;;;;;6178632;28;20815;-66
2021/10/25 02:47:18;;;;;;;6.00;5.40;;;5.30;99.90;;;;;;6178856;28;20468;-67
2021/10/25 02:50:22;;;;;;;9.17;5.40;;;5.20;99.90;;;;;;6181154;28;20849;-66
2021/10/25 02:53:26;;;;;;;10.23;5.73;;;5.10;99.90;;;;;;6179794;28;20485;-66
2021/10/25 02:56:30;;;;;;;7.63;6.47;;;5.20;99.90;;;;;;6177709;28;20989;-67
2021/10/25 02:59:33;;;;;;;10.40;8.03;;;5.10;99.90;;;;;;6177384;28;20492;-66
2021/10/25 03:02:36;;;;;;;8.17;5.57;;;5.10;99.90;;;;;;6177164;28;20478;-66
2021/10/25 03:05:40;;;;;;;9.53;7.10;;;5.10;99.90;;;;;;6178741;28;20478;-67
2021/10/25 03:08:44;;;;;;;7.27;6.13;;;5.00;99.90;;;;;;6177224;28;20629;-67
2021/10/25 03:11:47;;;;;;;9.27;6.10;;;5.00;99.90;;;;;;6177334;28;20525;-67
2021/10/25 03:14:51;;;;;;;8.07;6.67;;;4.90;99.90;;;;;;6176660;28;20505;-67
2021/10/25 03:17:54;;;;;;;6.23;5.63;;;4.90;99.90;;;;;;6177050;28;20486;-67
2021/10/25 03:20:57;;;;;;;6.03;5.27;;;4.90;99.90;;;;;;6176914;28;20481;-67
2021/10/25 03:24:02;;;;;;;8.03;5.47;;;5.00;99.90;;;;;;6177229;28;20477;-66
2021/10/25 03:27:05;;;;;;;6.00;5.43;;;5.00;99.90;;;;;;6177555;28;20531;-66
2021/10/25 03:30:10;;;;;;;6.47;5.77;;;5.00;99.90;;;;;;6176900;28;20497;-66
2021/10/25 03:33:14;;;;;;;10.33;5.67;;;4.90;99.90;;;;;;6172363;28;20493;-66
2021/10/25 03:36:18;;;;;;;6.30;5.70;;;4.90;99.90;;;;;;6176518;28;20841;-66
2021/10/25 03:39:25;;;;;;;6.20;5.60;;;4.90;99.90;;;;;;6188413;28;20492;-66
2021/10/25 03:42:30;;;;;;;8.07;6.90;;;4.90;99.90;;;;;;6206189;28;20779;-66
2021/10/25 03:45:37;;;;;;;8.57;6.27;;;4.80;99.90;;;;;;6205672;28;20974;-67
2021/10/25 03:48:44;;;;;;;6.37;5.77;;;4.80;99.90;;;;;;6205778;28;20560;-67
2021/10/25 03:51:47;;;;;;;6.50;5.30;;;4.80;99.90;;;;;;6205441;28;20583;-66
2021/10/25 03:54:59;;;;;;;6.63;5.80;;;4.80;99.90;;;;;;6205628;28;20476;-66
2021/10/25 04:27:58;;;;;;;8.23;5.93;;;4.70;99.90;;;;;;6159919;28;21029;-67
2021/10/25 04:31:01;;;;;;;6.07;5.47;;;4.70;99.90;;;;;;6156474;28;20827;-67
2021/10/25 04:34:04;;;;;;;5.70;5.20;;;4.70;99.90;;;;;;6179450;28;20543;-67
2021/10/25 04:37:07;;;;;;;7.67;5.87;;;4.70;99.90;;;;;;6157187;28;20478;-67
2021/10/25 04:40:13;;;;;;;8.90;7.40;;;4.70;99.90;;;;;;6151536;28;20482;-67
2021/10/25 04:43:18;;;;;;;9.77;8.40;;;4.70;99.90;;;;;;6179764;28;20837;-67
2021/10/25 04:46:22;;;;;;;11.73;10.10;;;4.70;99.90;;;;;;6180401;28;20454;-67
2021/10/25 04:49:25;;;;;;;11.00;9.80;;;4.60;99.90;;;;;;6178984;28;20973;-67
2021/10/25 04:52:28;;;;;;;10.90;8.60;;;4.50;99.90;;;;;;6179830;28;20442;-68
2021/10/25 04:55:31;;;;;;;7.80;7.00;;;4.60;99.90;;;;;;6179053;28;20803;-67
2021/10/25 04:58:36;;;;;;;9.17;8.27;;;4.50;99.90;;;;;;6179107;28;20492;-67
2021/10/25 05:01:39;;;;;;;8.37;7.57;;;4.50;99.90;;;;;;6178106;28;20764;-67
2021/10/25 05:04:42;;;;;;;6.87;6.20;;;4.50;99.90;;;;;;6178251;28;20552;-67
2021/10/25 05:07:45;;;;;;;12.17;7.00;;;4.50;99.90;;;;;;6178608;28;20480;-67
2021/10/25 05:10:48;;;;;;;7.33;6.63;;;4.50;99.90;;;;;;6179358;28;20480;-68
2021/10/25 05:13:53;;;;;;;7.10;6.33;;;4.40;99.90;;;;;;6179205;28;20977;-67
2021/10/25 05:16:56;;;;;;;7.13;6.53;;;4.40;99.90;;;;;;6178704;28;20469;-68
2021/10/25 05:19:59;;;;;;;7.37;6.47;;;4.40;99.90;;;;;;6178363;28;20485;-68
2021/10/25 05:23:02;;;;;;;8.37;6.03;;;4.40;99.90;;;;;;6178635;28;20474;-67
2021/10/25 05:26:05;;;;;;;6.50;5.90;;;4.50;99.90;;;;;;6178510;28;20794;-67
2021/10/25 05:29:10;;;;;;;10.70;6.53;;;4.50;99.90;;;;;;6178456;28;20473;-67
2021/10/25 05:32:13;;;;;;;10.57;6.60;;;4.40;99.90;;;;;;6178131;28;20474;-67
2021/10/25 05:35:16;;;;;;;10.00;6.33;;;4.50;99.90;;;;;;6177603;28;20484;-67
2021/10/25 05:38:20;;;;;;;9.57;6.40;;;4.50;99.90;;;;;;6178443;28;20540;-67
2021/10/25 05:41:24;;;;;;;10.20;6.93;;;4.40;99.90;;;;;;6168429;28;20506;-67
2021/10/25 05:44:29;;;;;;;7.20;6.50;;;4.40;99.90;;;;;;6178363;28;20477;-67
2021/10/25 05:47:33;;;;;;;7.57;5.97;;;4.40;99.90;;;;;;6178490;28;20473;-67
2021/10/25 05:50:36;;;;;;;9.23;6.60;;;4.50;99.90;;;;;;6178235;28;20486;-67
2021/10/25 05:53:39;;;;;;;7.37;6.60;;;4.50;99.90;;;;;;6178371;28;20478;-67
2021/10/25 05:56:43;;;;;;;8.47;7.13;;;4.50;99.90;;;;;;6178217;28;20496;-67
2021/10/25 05:59:49;;;;;;;8.77;7.13;;;4.50;99.90;;;;;;6178101;28;20536;-67
2021/10/25 06:02:54;;;;;;;9.30;6.57;;;4.50;99.90;;;;;;6177534;28;20478;-67
2021/10/25 06:05:57;;;;;;;8.23;7.40;;;4.60;99.90;;;;;;6178386;28;20469;-67
2021/10/25 06:09:01;;;;;;;11.73;7.53;;;4.60;99.90;;;;;;6178044;28;20477;-67
2021/10/25 06:12:08;;;;;;;7.40;6.70;;;4.70;99.90;;;;;;6178239;28;20477;-67
2021/10/25 06:15:17;;;;;;;8.40;7.60;;;4.70;99.90;;;;;;6177824;28;20818;-67
2021/10/25 06:18:20;;;;;;;10.10;6.90;;;4.70;99.90;;;;;;6178189;28;20544;-66
2021/10/25 06:21:23;;;;;;;6.93;6.30;;;4.80;99.90;;;;;;6177552;28;20782;-67
2021/10/25 06:24:26;;;;;;;7.93;7.00;;;4.80;99.90;;;;;;6178039;28;20478;-67
2021/10/25 06:27:29;;;;;;;8.77;7.13;;;4.80;99.90;;;;;;6177925;28;20819;-67
2021/10/25 06:30:37;;;;;;;6.90;6.30;;;4.80;99.90;;;;;;6177623;28;20474;-67
2021/10/25 06:33:43;;;;;;;9.57;6.87;;;4.90;99.90;;;;;;6177859;28;20477;-68
2021/10/25 06:36:50;;;;;;;9.53;6.87;;;4.90;99.90;;;;;;6177714;28;20473;-67
2021/10/25 06:39:55;;;;;;;7.07;6.20;;;4.90;99.90;;;;;;6177243;28;20548;-67
2021/10/25 06:42:58;;;;;;;9.40;7.67;;;5.00;99.90;;;;;;6177284;28;20561;-67
2021/10/25 06:46:03;;;;;;;11.47;7.90;;;5.10;99.90;;;;;;6173266;28;20477;-67
2021/10/25 06:49:07;;;;;;;10.30;9.20;;;5.20;99.90;;;;;;6166574;28;20637;-66
2021/10/25 06:52:10;;;;;;;12.03;8.83;;;5.20;99.90;;;;;;6174436;28;20489;-67
2021/10/25 06:55:13;;;;;;;12.10;9.10;;;5.20;99.90;;;;;;6178464;28;20817;-70
2021/10/25 06:58:19;;;;;;;11.27;10.07;;;5.20;99.90;;;;;;6176874;28;20481;-68
2021/10/25 07:01:25;;;;;;;13.77;9.57;;;5.20;99.90;;;;;;6154093;28;20481;-69
2021/10/25 07:04:29;;;;;;;11.13;9.83;;;5.10;99.90;;;;;;6153921;28;20466;-68
2021/10/25 07:07:32;;;;;;;12.80;10.27;;;5.20;99.90;;;;;;6151824;28;20473;-68
2021/10/25 07:10:37;;;;;;;14.33;10.23;;;5.20;99.90;;;;;;6151642;28;20770;-68
2021/10/25 07:13:52;;;;;;;13.80;10.30;;;5.10;99.90;;;;;;6155821;28;20467;-67
2021/10/25 07:17:08;;;;;;;11.50;10.30;;;5.10;99.90;;;;;;6158404;28;20467;-67
2021/10/25 07:20:21;;;;;;;10.90;9.50;;;5.10;99.90;;;;;;6164791;28;20568;-67
2021/10/25 07:27:10;;;;;;;16.23;10.70;;;5.10;99.90;;;;;;6114659;28;20490;-67
2021/10/25 08:00:49;;;;;;;12.90;10.47;;;6.50;99.90;;;;;;6133105;29;20799;-67
2021/10/25 08:07:23;;;;;;;12.23;11.03;;;6.70;99.90;;;;;;6132780;29;20475;-68
2021/10/25 08:10:30;;;;;;;12.97;8.90;;;6.90;99.90;;;;;;6132890;29;20486;-66
2021/10/25 08:13:36;;;;;;;20.20;12.47;;;7.10;99.90;;;;;;6145412;28;20461;-66
2021/10/25 08:16:47;;;;;;;11.40;9.00;;;7.30;99.90;;;;;;6155605;28;20470;-66
2021/10/25 08:19:51;;;;;;;9.37;7.97;;;7.60;99.90;;;;;;6155833;28;20959;-66
2021/10/25 08:22:56;;;;;;;8.60;7.80;;;7.90;99.80;;;;;;6155535;28;20779;-66
2021/10/25 08:26:09;;;;;;;10.50;9.60;;;8.30;99.50;;;;;;6155338;28;20475;-66
2021/10/25 08:29:12;;;;;;;13.90;11.07;;;8.60;98.70;;;;;;6156084;28;20481;-67
2021/10/25 08:32:28;;;;;;;9.53;8.43;;;8.90;98.00;;;;;;6155694;28;20482;-67
2021/10/25 08:42:17;;;;;;;10.97;7.33;;;17.70;74.10;;;;;;6131974;28;20825;-67
2021/10/25 08:45:29;;;;;;;8.60;7.70;;;21.70;55.00;;;;;;6131968;28;20661;-67
2021/10/25 08:48:33;;;;;;;8.57;7.67;;;24.80;45.80;;;;;;6153297;28;20271;-67
2021/10/25 08:51:37;;;;;;;10.10;8.87;;;27.70;38.90;;;;;;6155911;28;20230;-68
2021/10/25 08:54:42;;;;;;;9.10;8.40;;;30.00;32.90;;;;;;6146769;28;20244;-68
2021/10/25 08:57:45;;;;;;;10.40;9.50;;;31.50;29.20;;;;;;6155410;28;20612;-67
2021/10/25 09:00:50;;;;;;;9.10;8.35;;;32.90;27.30;;;;;;6155292;28;20709;-67
2021/10/25 09:04:05;;;;;;;8.40;7.70;;;33.80;25.60;;;;;;6155305;28;20591;-68
2021/10/25 09:07:08;;;;;;;8.13;7.05;;;34.20;24.50;;;;;;6155058;28;20227;-68
2021/10/25 09:10:13;;;;;;;8.05;6.63;;;33.90;24.00;;;;;;6155025;28;20242;-68
2021/10/25 09:13:18;;;;;;;8.27;7.43;;;31.20;25.20;;;;;;6155196;28;20230;-69
2021/10/25 09:16:22;;;;;;;10.10;9.20;;;28.30;27.40;;;;;;6155036;28;20238;-67
2021/10/25 09:19:25;;;;;;;8.33;7.63;;;25.40;30.40;;;;;;6155811;28;20229;-67
2021/10/25 09:22:28;;;;;;;7.80;7.13;;;23.20;33.20;;;;;;6155599;28;20198;-66
2021/10/25 09:25:34;;;;;;;7.50;6.80;;;21.70;36.00;;;;;;6155237;28;20207;-66
2021/10/25 09:28:40;;;;;;;8.07;7.00;;;22.50;37.00;;;;;;6155122;28;20245;-68
2021/10/25 09:31:55;;;;;;;7.60;6.90;;;26.30;33.40;;;;;;6154847;28;20234;-70
2021/10/25 09:35:00;;;;;;;7.70;5.90;;;29.90;28.90;;;;;;6151958;28;20230;-68
2021/10/25 09:38:20;;;;;;;6.60;5.95;;;32.30;25.90;;;;;;6129623;28;20254;-71
2021/10/25 09:41:41;;;;;;;9.00;5.93;;;34.30;24.00;;;;;;6131038;29;20551;-70
2021/10/25 09:51:54;;;;;;;6.20;5.70;;;36.10;21.80;;;;;;6130209;28;20236;-70
2021/10/25 09:54:59;;;;;;;5.38;4.97;;;38.10;21.10;;;;;;6131068;29;20238;-69
2021/10/25 09:58:15;;;;;;;6.03;5.53;;;38.80;20.10;;;;;;6129576;29;20233;-71
2021/10/25 10:01:23;;;;;;;5.00;4.60;;;38.60;20.00;;;;;;6154265;28;20246;-70
2021/10/25 10:04:27;;;;;;;5.88;5.47;;;39.10;18.90;;;;;;6154096;28;20645;-69
2021/10/25 10:07:31;;;;;;;5.28;4.88;;;39.00;18.70;;;;;;6154274;28;20615;-68
2021/10/25 10:10:34;;;;;;;4.82;4.43;;;39.80;18.60;;;;;;6154053;28;20595;-69
2021/10/25 10:13:40;;;;;;;4.35;3.92;;;40.30;18.10;;;;;;6147295;28;20214;-68
2021/10/25 10:16:44;;;;;;;5.13;4.35;;;39.80;17.60;;;;;;6154060;28;20238;-68
2021/10/25 10:19:49;;;;;;;4.10;3.80;;;39.90;17.90;;;;;;6154082;28;20242;-68
2021/10/25 10:22:55;;;;;;;5.18;4.72;;;40.00;18.00;;;;;;6153911;28;20230;-69
2021/10/25 10:26:00;;;;;;;5.50;5.10;;;40.70;17.20;;;;;;6153861;28;20546;-69
2021/10/25 10:29:14;;;;;;;6.28;4.95;;;40.40;17.80;;;;;;6153505;28;20231;-69
2021/10/25 10:32:18;;;;;;;6.10;5.50;;;40.20;17.60;;;;;;6153389;28;20571;-68
2021/10/25 10:35:24;;;;;;;6.20;5.65;;;40.70;17.40;;;;;;6153447;28;20238;-69
2021/10/25 10:38:31;;;;;;;5.72;4.47;;;38.20;18.20;;;;;;6153497;28;20230;-69
2021/10/25 10:41:40;;;;;;;5.22;4.72;;;38.90;18.30;;;;;;6153319;28;20230;-68
2021/10/25 10:44:58;;;;;;;5.07;4.68;;;38.40;18.10;;;;;;6153200;28;20237;-68
2021/10/25 10:48:03;;;;;;;4.75;4.38;;;37.90;18.40;;;;;;6151834;28;20238;-69
2021/10/25 10:51:11;;;;;;;6.28;5.78;;;38.10;18.20;;;;;;6151524;28;20242;-68
2021/10/25 10:54:22;;;;;;;4.75;4.35;;;39.00;18.20;;;;;;6151513;28;20579;-69
2021/10/25 11:01:06;;;;;;;5.38;4.88;;;36.40;19.00;;;;;;6127198;29;20239;-71
2021/10/25 11:04:09;;;;;;;5.15;4.65;;;38.50;18.50;;;;;;6127859;29;20617;-69
2021/10/25 11:07:12;;;;;;;5.40;4.90;;;38.80;18.20;;;;;;6128225;29;20241;-70
2021/10/25 11:10:15;;;;;;;5.22;4.82;;;39.80;17.70;;;;;;6127837;29;20234;-67
2021/10/25 11:13:21;;;;;;;6.03;5.55;;;40.20;17.00;;;;;;6137550;29;20226;-68
2021/10/25 11:16:34;;;;;;;5.85;5.38;;;39.60;17.60;;;;;;6152336;28;20223;-68
2021/10/25 11:19:45;;;;;;;6.38;5.32;;;38.60;18.00;;;;;;6152924;28;20312;-68
2021/10/25 11:22:48;;;;;;;5.97;5.47;;;38.60;17.90;;;;;;6153035;28;20237;-69
2021/10/25 11:25:52;;;;;;;6.20;5.70;;;39.40;18.10;;;;;;6153029;28;20236;-70
2021/10/25 11:28:58;;;;;;;5.40;4.90;;;40.30;17.30;;;;;;6153010;28;20238;-68
2021/10/25 11:32:05;;;;;;;5.38;4.85;;;40.10;17.00;;;;;;6152914;28;20237;-68
2021/10/25 11:35:13;;;;;;;5.40;4.90;;;39.70;17.20;;;;;;6152491;28;20694;-69
2021/10/25 11:38:16;;;;;;;5.20;4.75;;;39.30;17.70;;;;;;6152269;28;20671;-69
2021/10/25 11:41:19;;;;;;;6.18;5.68;;;40.50;17.30;;;;;;6152938;28;20230;-68
2021/10/25 11:44:22;;;;;;;6.40;5.80;;;40.20;16.90;;;;;;6152474;28;20234;-68
2021/10/25 11:47:29;;;;;;;5.75;5.35;;;39.00;17.40;;;;;;6152427;28;20670;-68
2021/10/25 11:50:37;;;;;;;5.07;4.68;;;37.40;18.10;;;;;;6152624;28;20238;-69
2021/10/25 11:53:41;;;;;;;5.60;5.20;;;36.70;18.60;;;;;;6163004;28;20240;-69
2021/10/25 11:56:50;;;;;;;4.90;4.50;;;37.10;18.30;;;;;;6165454;28;20234;-70
2021/10/25 11:59:58;;;;;;;5.22;4.82;;;39.10;17.30;;;;;;6153138;28;20242;-70
2021/10/25 12:03:12;;;;;;;5.13;4.13;;;39.00;16.80;;;;;;6169281;28;20284;-70
2021/10/25 12:06:20;;;;;;;4.53;3.85;;;39.10;16.60;;;;;;6156343;28;20238;-70
2021/10/25 12:09:30;;;;;;;4.82;4.03;;;40.10;16.30;;;;;;6156330;28;20250;-69
2021/10/25 12:12:35;;;;;;;4.20;3.80;;;40.80;15.80;;;;;;6173765;28;20259;-70
2021/10/25 12:15:42;;;;;;;4.22;3.72;;;41.70;15.10;;;;;;6180273;28;20670;-69
2021/10/25 12:18:46;;;;;;;4.60;4.18;;;41.70;14.50;;;;;;6180151;28;20291;-68
2021/10/25 12:21:50;;;;;;;5.63;3.55;;;40.20;14.80;;;;;;6179930;28;20690;-68
2021/10/25 12:24:56;;;;;;;4.25;3.85;;;40.90;15.00;;;;;;6179972;28;20230;-68
2021/10/25 12:28:00;;;;;;;3.70;3.40;;;40.70;14.30;;;;;;6158919;28;20230;-67
2021/10/25 12:31:09;;;;;;;4.13;3.72;;;38.10;15.30;;;;;;6156254;28;20288;-68
2021/10/25 12:34:14;;;;;;;4.45;3.70;;;35.90;16.60;;;;;;6179475;28;20239;-68
2021/10/25 12:37:22;;;;;;;4.55;3.08;;;35.80;16.80;;;;;;6157009;28;20771;-67
2021/10/25 12:40:28;;;;;;;4.50;3.67;;;36.60;16.60;;;;;;6181449;28;20257;-67
2021/10/25 12:43:40;;;;;;;3.10;2.80;;;36.90;16.40;;;;;;6178615;28;20213;-67
2021/10/25 12:46:43;;;;;;;3.35;3.05;;;36.60;16.10;;;;;;6156279;28;20226;-69
2021/10/25 12:49:54;;;;;;;4.13;3.60;;;36.10;16.60;;;;;;6159526;28;20566;-70
2021/10/25 12:52:57;;;;;;;3.88;3.20;;;36.60;15.90;;;;;;6175830;28;20579;-70
2021/10/25 12:56:02;;;;;;;4.07;3.67;;;36.30;16.20;;;;;;6156211;28;20227;-68
2021/10/25 12:59:07;;;;;;;3.85;3.28;;;36.70;16.00;;;;;;6167557;28;20233;-69
2021/10/25 13:02:11;;;;;;;4.32;3.80;;;36.50;15.70;;;;;;6179905;28;20669;-69
2021/10/25 13:05:17;;;;;;;4.05;3.50;;;36.90;15.60;;;;;;6179696;28;20236;-69
2021/10/25 13:08:24;;;;;;;3.75;3.30;;;34.90;16.50;;;;;;6175229;28;20237;-69
2021/10/25 13:11:27;;;;;;;3.25;2.95;;;34.30;17.20;;;;;;6179918;28;20705;-68
2021/10/25 13:14:31;;;;;;;3.85;3.55;;;32.60;18.20;;;;;;6171314;28;20236;-68
2021/10/25 13:17:34;;;;;;;3.88;3.55;;;31.80;18.80;;;;;;6181068;28;20237;-69
2021/10/25 13:20:41;;;;;;;4.90;3.92;;;32.10;18.30;;;;;;6181193;28;20241;-70
2021/10/25 13:23:45;;;;;;;4.63;4.23;;;30.50;19.50;;;;;;6181772;28;20241;-69
2021/10/25 13:26:49;;;;;;;5.20;3.60;;;30.80;19.50;;;;;;6158793;28;20245;-69
2021/10/25 13:29:53;;;;;;;3.60;3.00;;;30.40;19.80;;;;;;6156241;28;20233;-70
2021/10/25 13:32:57;;;;;;;5.10;4.07;;;31.00;19.50;;;;;;6168019;28;20240;-69
2021/10/25 13:36:02;;;;;;;5.03;3.88;;;31.30;19.20;;;;;;6167545;28;20576;-68
2021/10/25 13:39:05;;;;;;;4.57;4.17;;;31.10;19.60;;;;;;6155560;28;20261;-67
2021/10/25 13:42:08;;;;;;;5.10;3.50;;;30.50;20.20;;;;;;6169173;28;20241;-67
2021/10/25 13:45:11;;;;;;;3.93;3.50;;;29.30;20.40;;;;;;6164340;28;20293;-70
2021/10/25 13:48:15;;;;;;;3.63;3.33;;;27.80;21.40;;;;;;6154206;28;20230;-68
2021/10/25 13:51:19;;;;;;;4.33;3.17;;;26.20;22.90;;;;;;6170412;28;20230;-69
2021/10/25 13:54:23;;;;;;;3.93;3.30;;;24.60;24.40;;;;;;6162347;28;20542;-69
2021/10/25 13:57:27;;;;;;;5.23;3.80;;;23.20;25.50;;;;;;6153794;28;20257;-68
2021/10/25 14:00:31;;;;;;;5.93;3.80;;;22.10;26.70;;;;;;6177450;28;20242;-69
2021/10/25 14:03:37;;;;;;;5.57;4.73;;;21.30;27.90;;;;;;6178233;28;20320;-69
2021/10/25 14:06:42;;;;;;;3.50;3.13;;;20.70;28.40;;;;;;6177906;28;20306;-70
2021/10/25 14:09:53;;;;;;;5.80;3.73;;;20.00;29.20;;;;;;6177936;28;20254;-70
2021/10/25 14:13:03;;;;;;;3.50;3.20;;;19.30;30.00;;;;;;6156237;28;20231;-69
2021/10/25 14:16:21;;;;;;;4.17;3.70;;;18.50;31.80;;;;;;6175154;28;20234;-67
2021/10/25 14:19:28;;;;;;;3.60;3.30;;;18.10;32.40;;;;;;6153318;28;20265;-68
2021/10/25 14:22:32;;;;;;;4.00;2.70;;;17.70;32.90;;;;;;6153201;28;20274;-67
2021/10/25 14:25:36;;;;;;;2.93;2.63;;;17.40;34.00;;;;;;6152993;28;20779;-67
2021/10/25 14:28:41;;;;;;;4.60;4.10;;;17.20;34.40;;;;;;6154600;28;20466;-67
2021/10/25 14:31:47;;;;;;;4.10;3.70;;;17.00;35.70;;;;;;6153556;28;20467;-68
2021/10/25 14:34:50;;;;;;;3.90;2.90;;;16.80;35.90;;;;;;6154152;28;20479;-67
2021/10/25 14:37:56;;;;;;;4.37;3.07;;;16.50;36.40;;;;;;6152766;28;20483;-68
2021/10/25 14:41:07;;;;;;;4.17;3.13;;;16.30;36.50;;;;;;6167589;28;20485;-67
2021/10/25 14:44:22;;;;;;;4.03;3.73;;;16.00;36.80;;;;;;6175843;28;20478;-68
2021/10/25 14:54:18;;;;;;;3.90;3.47;;;15.30;38.50;;;;;;6177333;28;20488;-69
2021/10/25 14:57:22;;;;;;;5.93;4.10;;;15.20;39.00;;;;;;6178207;28;20474;-70
2021/10/25 15:00:25;;;;;;;4.00;3.70;;;15.00;39.60;;;;;;6176612;28;20478;-69
2021/10/25 15:03:49;;;;;;;8.90;4.13;;;14.80;40.10;;;;;;6175352;28;20552;-68
2021/10/25 15:06:52;;;;;;;5.87;3.10;;;14.70;40.40;;;;;;6176443;28;20500;-67
2021/10/25 15:09:57;;;;;;;5.20;3.63;;;14.40;40.90;;;;;;6176459;28;20477;-68
2021/10/25 15:13:01;;;;;;;4.80;4.27;;;14.40;41.10;;;;;;6176583;28;21003;-68
2021/10/25 15:16:05;;;;;;;7.43;4.20;;;14.30;41.30;;;;;;6176710;28;20477;-69
2021/10/25 15:19:08;;;;;;;5.17;4.20;;;14.20;41.60;;;;;;6167885;28;20565;-69
2021/10/25 15:22:13;;;;;;;8.73;4.10;;;14.00;42.00;;;;;;6177098;28;20965;-70
2021/10/25 15:25:21;;;;;;;7.13;4.20;;;14.00;42.30;;;;;;6176869;28;20496;-69
2021/10/25 15:28:25;;;;;;;6.40;4.87;;;13.80;42.80;;;;;;6176597;28;20953;-69
2021/10/25 15:31:29;;;;;;;5.50;4.80;;;13.70;43.90;;;;;;6177032;28;20456;-69
2021/10/25 15:34:32;;;;;;;7.50;4.57;;;13.60;44.70;;;;;;6179317;28;20468;-69
2021/10/25 15:37:36;;;;;;;6.87;4.20;;;13.50;44.80;;;;;;6180974;28;20776;-68
2021/10/25 15:40:41;;;;;;;6.03;5.43;;;13.40;45.60;;;;;;6181143;28;20488;-69
2021/10/25 15:43:44;;;;;;;7.23;4.37;;;13.30;46.70;;;;;;6181225;28;20493;-68
2021/10/25 15:46:47;;;;;;;10.30;4.50;;;13.30;47.00;;;;;;6181782;28;20468;-67
2021/10/25 15:49:53;;;;;;;6.50;4.90;;;13.20;47.60;;;;;;6181462;28;20492;-67
2021/10/25 15:52:59;;;;;;;9.97;6.00;;;13.10;46.50;;;;;;6181506;28;20477;-66
2021/10/25 15:56:04;;;;;;;5.87;4.97;;;13.10;47.80;;;;;;6181115;28;20485;-67
2021/10/25 15:59:07;;;;;;;6.40;5.30;;;13.00;48.80;;;;;;6180666;28;20496;-67
2021/10/25 16:02:11;;;;;;;7.77;6.10;;;13.00;49.60;;;;;;6181257;28;20794;-67
2021/10/25 16:05:14;;;;;;;6.73;5.53;;;12.90;50.40;;;;;;6181118;28;20493;-66
2021/10/25 16:08:17;;;;;;;6.90;6.20;;;12.90;51.40;;;;;;6181399;28;20490;-66
2021/10/25 16:11:22;;;;;;;12.73;7.53;;;12.80;52.10;;;;;;6180848;28;20465;-66
2021/10/25 16:14:25;;;;;;;7.73;6.73;;;12.70;52.50;;;;;;6181072;28;20473;-66
2021/10/25 16:17:28;;;;;;;8.37;5.33;;;12.60;53.10;;;;;;6181106;28;20484;-65
2021/10/25 16:20:31;;;;;;;6.07;5.27;;;12.50;53.40;;;;;;6176852;28;20484;-65
2021/10/25 16:23:35;;;;;;;6.57;5.60;;;12.40;54.00;;;;;;6181014;28;20477;-65
2021/10/25 16:26:40;;;;;;;5.30;4.80;;;12.30;54.80;;;;;;6180503;28;20481;-65
2021/10/25 16:29:44;;;;;;;5.87;5.27;;;12.20;55.70;;;;;;6180282;28;20473;-66
2021/10/25 16:32:47;;;;;;;6.40;5.80;;;12.10;56.80;;;;;;6168235;28;20478;-66
2021/10/25 16:35:50;;;;;;;6.40;5.83;;;12.00;57.60;;;;;;6167046;28;20869;-66
2021/10/25 16:38:54;;;;;;;5.83;5.33;;;11.90;58.30;;;;;;6167831;28;20990;-66
2021/10/25 16:41:58;;;;;;;6.77;6.23;;;11.80;59.20;;;;;;6180361;28;20576;-66
2021/10/25 16:45:02;;;;;;;6.37;5.40;;;11.70;60.00;;;;;;6179532;28;20474;-67
2021/10/25 16:48:08;;;;;;;6.33;5.37;;;11.60;61.30;;;;;;6179496;28;20492;-65
2021/10/25 16:51:14;;;;;;;5.70;5.23;;;11.50;62.30;;;;;;6180056;28;20474;-66
2021/10/25 17:04:35;;;;;;;7.67;6.87;;;11.20;65.50;;;;;;6178545;28;20473;-66
2021/10/25 17:11:01;;;;;;;8.17;7.47;;;11.00;67.70;;;;;;6134215;28;20494;-65
2021/10/25 17:14:06;;;;;;;8.00;7.23;;;10.90;68.50;;;;;;6153514;28;20471;-65
2021/10/25 17:17:10;;;;;;;9.13;7.80;;;10.90;69.40;;;;;;6148282;28;20479;-67
2021/10/25 17:20:13;;;;;;;9.03;8.23;;;10.80;70.00;;;;;;6129763;28;20979;-65
2021/10/25 17:23:19;;;;;;;8.33;7.57;;;10.70;70.70;;;;;;6136993;28;20475;-65
2021/10/25 17:26:22;;;;;;;10.00;7.87;;;10.60;71.40;;;;;;6164877;28;20479;-64
2021/10/25 17:29:27;;;;;;;10.53;8.73;;;10.60;71.80;;;;;;6153349;28;21026;-67
2021/10/25 17:32:30;;;;;;;9.00;7.60;;;10.50;72.50;;;;;;6161898;28;20474;-65
2021/10/25 17:35:34;;;;;;;8.70;7.37;;;10.40;73.20;;;;;;6169389;28;20471;-66
2021/10/25 17:38:37;;;;;;;13.37;7.37;;;10.30;74.10;;;;;;6154912;28;20483;-66
2021/10/25 17:41:43;;;;;;;8.60;7.70;;;10.30;74.80;;;;;;6164886;28;20484;-67
2021/10/25 17:44:48;;;;;;;8.23;7.33;;;10.20;74.70;;;;;;6168648;28;20478;-66
2021/10/25 17:47:52;;;;;;;7.87;7.17;;;10.20;75.60;;;;;;6154726;28;20969;-66
2021/10/25 17:50:56;;;;;;;10.37;7.00;;;10.00;75.80;;;;;;6167886;28;20488;-65
2021/10/25 17:53:59;;;;;;;7.90;7.10;;;10.00;76.50;;;;;;6166555;28;20489;-68